sensor_id;sensor_type;location;lat;lon;timestamp;P1;durP1;ratioP1;P2;durP2;ratioP2
40907;SDS011;51055;59.436;24.778;2022-11-06T00:02:01;7.60;;;5.20;;
40907;SDS011;51055;59.436;24.778;2022-11-06T00:04:29;8.57;;;5.40;;
40907;SDS011;51055;59.436;24.778;2022-11-06T00:06:57;9.20;;;5.63;;
40907;SDS011;51055;59.436;24.778;2022-11-06T00:09:25;7.88;;;5.30;;
40907;SDS011;51055;59.436;24.778;2022-11-06T00:11:53;8.88;;;5.40;;
40907;SDS011;51055;59.436;24.778;2022-11-06T00:14:21;9.70;;;5.47;;
40907;SDS011;51055;59.436;24.778;2022-11-06T00:16:48;8.52;;;5.32;;
40907;SDS011;51055;59.436;24.778;2022-11-06T00:19:16;7.38;;;5.00;;
40907;SDS011;51055;59.436;24.778;2022-11-06T00:21:44;7.18;;;4.90;;
40907;SDS011;51055;59.436;24.778;2022-11-06T00:24:13;9.20;;;4.85;;
40907;SDS011;51055;59.436;24.778;2022-11-06T00:26:42;8.75;;;4.85;;
40907;SDS011;51055;59.436;24.778;2022-11-06T00:29:13;6.65;;;4.13;;
40907;SDS011;51055;59.436;24.778;2022-11-06T00:31:41;7.63;;;4.60;;
40907;SDS011;51055;59.436;24.778;2022-11-06T00:34:09;7.50;;;4.68;;
40907;SDS011;51055;59.436;24.778;2022-11-06T00:36:37;5.27;;;3.50;;
40907;SDS011;51055;59.436;24.778;2022-11-06T00:39:05;7.35;;;4.68;;
40907;SDS011;51055;59.436;24.778;2022-11-06T00:41:33;8.98;;;4.72;;
40907;SDS011;51055;59.436;24.778;2022-11-06T00:44:00;7.13;;;4.32;;
40907;SDS011;51055;59.436;24.778;2022-11-06T00:46:29;7.30;;;4.20;;
40907;SDS011;51055;59.436;24.778;2022-11-06T00:48:57;5.25;;;3.05;;
40907;SDS011;51055;59.436;24.778;2022-11-06T00:51:26;5.85;;;3.53;;
40907;SDS011;51055;59.436;24.778;2022-11-06T00:53:59;6.38;;;4.25;;
40907;SDS011;51055;59.436;24.778;2022-11-06T00:56:28;5.88;;;3.20;;
40907;SDS011;51055;59.436;24.778;2022-11-06T00:58:57;7.43;;;3.83;;
40907;SDS011;51055;59.436;24.778;2022-11-06T01:01:36;6.28;;;3.53;;
40907;SDS011;51055;59.436;24.778;2022-11-06T01:04:07;6.70;;;3.53;;
40907;SDS011;51055;59.436;24.778;2022-11-06T01:06:39;6.60;;;3.28;;
40907;SDS011;51055;59.436;24.778;2022-11-06T01:09:10;6.55;;;3.47;;
40907;SDS011;51055;59.436;24.778;2022-11-06T01:11:40;5.20;;;2.95;;
40907;SDS011;51055;59.436;24.778;2022-11-06T01:14:30;5.20;;;3.00;;
40907;SDS011;51055;59.436;24.778;2022-11-06T01:16:57;4.80;;;2.60;;
40907;SDS011;51055;59.436;24.778;2022-11-06T01:19:25;4.88;;;2.83;;
40907;SDS011;51055;59.436;24.778;2022-11-06T01:21:53;4.97;;;2.67;;
40907;SDS011;51055;59.436;24.778;2022-11-06T01:24:22;4.97;;;2.60;;
40907;SDS011;51055;59.436;24.778;2022-11-06T01:26:51;4.60;;;2.53;;
40907;SDS011;51055;59.436;24.778;2022-11-06T01:29:40;4.13;;;2.30;;
40907;SDS011;51055;59.436;24.778;2022-11-06T01:32:07;5.18;;;2.50;;
40907;SDS011;51055;59.436;24.778;2022-11-06T01:34:35;4.50;;;2.30;;
40907;SDS011;51055;59.436;24.778;2022-11-06T01:37:03;4.20;;;2.33;;
40907;SDS011;51055;59.436;24.778;2022-11-06T01:39:30;4.78;;;2.28;;
40907;SDS011;51055;59.436;24.778;2022-11-06T01:41:58;4.28;;;2.25;;
40907;SDS011;51055;59.436;24.778;2022-11-06T01:47:00;4.03;;;2.00;;
40907;SDS011;51055;59.436;24.778;2022-11-06T01:49:33;4.38;;;2.13;;
40907;SDS011;51055;59.436;24.778;2022-11-06T01:52:06;3.65;;;1.80;;
40907;SDS011;51055;59.436;24.778;2022-11-06T01:54:37;4.55;;;2.10;;
40907;SDS011;51055;59.436;24.778;2022-11-06T01:57:06;3.95;;;2.05;;
40907;SDS011;51055;59.436;24.778;2022-11-06T01:59:35;3.78;;;1.88;;
40907;SDS011;51055;59.436;24.778;2022-11-06T02:02:06;4.60;;;2.30;;
40907;SDS011;51055;59.436;24.778;2022-11-06T02:04:37;3.38;;;1.80;;
40907;SDS011;51055;59.436;24.778;2022-11-06T02:07:08;4.38;;;1.95;;
40907;SDS011;51055;59.436;24.778;2022-11-06T02:09:37;3.40;;;1.70;;
40907;SDS011;51055;59.436;24.778;2022-11-06T02:12:13;3.05;;;1.70;;
40907;SDS011;51055;59.436;24.778;2022-11-06T02:23:50;3.55;;;1.70;;
40907;SDS011;51055;59.436;24.778;2022-11-06T02:29:46;3.15;;;1.80;;
40907;SDS011;51055;59.436;24.778;2022-11-06T02:32:19;3.72;;;1.92;;
40907;SDS011;51055;59.436;24.778;2022-11-06T02:34:52;3.67;;;1.95;;
40907;SDS011;51055;59.436;24.778;2022-11-06T02:37:25;4.05;;;1.85;;
40907;SDS011;51055;59.436;24.778;2022-11-06T02:39:56;4.15;;;2.00;;
40907;SDS011;51055;59.436;24.778;2022-11-06T02:42:28;4.03;;;2.00;;
40907;SDS011;51055;59.436;24.778;2022-11-06T02:44:57;5.68;;;1.92;;
40907;SDS011;51055;59.436;24.778;2022-11-06T02:47:27;3.70;;;2.08;;
40907;SDS011;51055;59.436;24.778;2022-11-06T02:50:10;3.85;;;2.03;;
40907;SDS011;51055;59.436;24.778;2022-11-06T02:52:44;4.13;;;2.00;;
40907;SDS011;51055;59.436;24.778;2022-11-06T02:55:14;3.97;;;1.92;;
40907;SDS011;51055;59.436;24.778;2022-11-06T02:57:58;3.65;;;1.88;;
40907;SDS011;51055;59.436;24.778;2022-11-06T03:00:30;3.85;;;2.08;;
40907;SDS011;51055;59.436;24.778;2022-11-06T03:03:00;5.15;;;1.98;;
40907;SDS011;51055;59.436;24.778;2022-11-06T03:05:38;5.05;;;2.10;;
40907;SDS011;51055;59.436;24.778;2022-11-06T03:08:22;3.92;;;2.00;;
40907;SDS011;51055;59.436;24.778;2022-11-06T03:11:00;5.28;;;2.10;;
40907;SDS011;51055;59.436;24.778;2022-11-06T03:27:23;4.80;;;2.15;;
40907;SDS011;51055;59.436;24.778;2022-11-06T03:30:06;4.45;;;2.13;;
40907;SDS011;51055;59.436;24.778;2022-11-06T03:32:45;4.80;;;2.42;;
40907;SDS011;51055;59.436;24.778;2022-11-06T03:35:26;4.68;;;2.28;;
40907;SDS011;51055;59.436;24.778;2022-11-06T03:38:08;5.30;;;2.33;;
40907;SDS011;51055;59.436;24.778;2022-11-06T03:40:46;4.10;;;2.22;;
40907;SDS011;51055;59.436;24.778;2022-11-06T03:43:20;4.13;;;2.20;;
40907;SDS011;51055;59.436;24.778;2022-11-06T03:45:52;4.70;;;2.40;;
40907;SDS011;51055;59.436;24.778;2022-11-06T03:56:21;4.68;;;2.20;;
40907;SDS011;51055;59.436;24.778;2022-11-06T03:58:53;4.82;;;2.25;;
40907;SDS011;51055;59.436;24.778;2022-11-06T04:01:25;4.70;;;2.35;;
40907;SDS011;51055;59.436;24.778;2022-11-06T04:06:32;4.88;;;2.45;;
40907;SDS011;51055;59.436;24.778;2022-11-06T04:09:04;4.85;;;2.53;;
40907;SDS011;51055;59.436;24.778;2022-11-06T04:11:54;4.68;;;2.38;;
40907;SDS011;51055;59.436;24.778;2022-11-06T04:14:44;4.93;;;2.50;;
40907;SDS011;51055;59.436;24.778;2022-11-06T04:17:15;3.92;;;1.95;;
40907;SDS011;51055;59.436;24.778;2022-11-06T04:19:47;4.03;;;2.13;;
40907;SDS011;51055;59.436;24.778;2022-11-06T04:22:43;5.13;;;2.60;;
40907;SDS011;51055;59.436;24.778;2022-11-06T04:31:02;4.60;;;2.25;;
40907;SDS011;51055;59.436;24.778;2022-11-06T04:41:37;5.15;;;2.88;;
40907;SDS011;51055;59.436;24.778;2022-11-06T04:46:44;5.80;;;2.70;;
40907;SDS011;51055;59.436;24.778;2022-11-06T04:49:15;6.10;;;2.90;;
40907;SDS011;51055;59.436;24.778;2022-11-06T04:54:13;6.03;;;2.75;;
40907;SDS011;51055;59.436;24.778;2022-11-06T04:56:42;5.50;;;3.03;;
40907;SDS011;51055;59.436;24.778;2022-11-06T04:59:13;6.60;;;3.22;;
40907;SDS011;51055;59.436;24.778;2022-11-06T05:01:44;6.82;;;3.47;;
40907;SDS011;51055;59.436;24.778;2022-11-06T05:06:40;6.18;;;3.35;;
40907;SDS011;51055;59.436;24.778;2022-11-06T05:09:08;6.32;;;3.30;;
40907;SDS011;51055;59.436;24.778;2022-11-06T05:11:35;8.27;;;3.75;;
40907;SDS011;51055;59.436;24.778;2022-11-06T05:14:04;6.30;;;3.78;;
40907;SDS011;51055;59.436;24.778;2022-11-06T05:16:32;6.80;;;4.00;;
40907;SDS011;51055;59.436;24.778;2022-11-06T05:19:00;6.95;;;4.15;;
40907;SDS011;51055;59.436;24.778;2022-11-06T05:21:27;6.38;;;3.30;;
40907;SDS011;51055;59.436;24.778;2022-11-06T05:24:13;6.95;;;3.92;;
40907;SDS011;51055;59.436;24.778;2022-11-06T05:26:41;6.25;;;3.75;;
40907;SDS011;51055;59.436;24.778;2022-11-06T05:29:10;7.40;;;4.13;;
40907;SDS011;51055;59.436;24.778;2022-11-06T05:31:38;7.43;;;4.55;;
40907;SDS011;51055;59.436;24.778;2022-11-06T05:36:35;7.05;;;4.28;;
40907;SDS011;51055;59.436;24.778;2022-11-06T05:39:02;7.05;;;4.32;;
40907;SDS011;51055;59.436;24.778;2022-11-06T05:41:30;10.52;;;4.70;;
40907;SDS011;51055;59.436;24.778;2022-11-06T05:43:57;7.82;;;4.68;;
40907;SDS011;51055;59.436;24.778;2022-11-06T05:46:25;7.88;;;4.53;;
40907;SDS011;51055;59.436;24.778;2022-11-06T05:49:13;7.18;;;3.65;;
40907;SDS011;51055;59.436;24.778;2022-11-06T05:51:40;10.70;;;5.30;;
40907;SDS011;51055;59.436;24.778;2022-11-06T05:54:09;9.30;;;4.93;;
40907;SDS011;51055;59.436;24.778;2022-11-06T05:56:36;9.57;;;5.55;;
40907;SDS011;51055;59.436;24.778;2022-11-06T05:59:04;10.98;;;5.90;;
40907;SDS011;51055;59.436;24.778;2022-11-06T06:01:32;11.15;;;6.03;;
40907;SDS011;51055;59.436;24.778;2022-11-06T06:04:00;9.27;;;4.82;;
40907;SDS011;51055;59.436;24.778;2022-11-06T06:06:27;12.23;;;5.82;;
40907;SDS011;51055;59.436;24.778;2022-11-06T06:08:55;10.57;;;6.13;;
40907;SDS011;51055;59.436;24.778;2022-11-06T06:11:22;14.80;;;6.50;;
40907;SDS011;51055;59.436;24.778;2022-11-06T06:13:50;11.93;;;6.95;;
40907;SDS011;51055;59.436;24.778;2022-11-06T06:16:18;13.02;;;6.95;;
40907;SDS011;51055;59.436;24.778;2022-11-06T06:18:49;12.25;;;7.13;;
40907;SDS011;51055;59.436;24.778;2022-11-06T06:21:19;13.50;;;7.50;;
40907;SDS011;51055;59.436;24.778;2022-11-06T06:23:47;15.70;;;8.18;;
40907;SDS011;51055;59.436;24.778;2022-11-06T06:26:15;14.77;;;8.13;;
40907;SDS011;51055;59.436;24.778;2022-11-06T06:28:43;12.25;;;6.43;;
40907;SDS011;51055;59.436;24.778;2022-11-06T06:31:10;18.38;;;9.63;;
40907;SDS011;51055;59.436;24.778;2022-11-06T06:33:38;16.65;;;9.35;;
40907;SDS011;51055;59.436;24.778;2022-11-06T06:36:06;18.08;;;9.07;;
40907;SDS011;51055;59.436;24.778;2022-11-06T06:38:33;12.17;;;6.93;;
40907;SDS011;51055;59.436;24.778;2022-11-06T06:41:02;14.02;;;8.73;;
40907;SDS011;51055;59.436;24.778;2022-11-06T06:43:31;16.45;;;8.93;;
40907;SDS011;51055;59.436;24.778;2022-11-06T06:46:00;13.80;;;7.18;;
40907;SDS011;51055;59.436;24.778;2022-11-06T06:48:30;18.45;;;9.75;;
40907;SDS011;51055;59.436;24.778;2022-11-06T06:50:58;14.00;;;7.37;;
40907;SDS011;51055;59.436;24.778;2022-11-06T06:53:27;18.77;;;10.07;;
40907;SDS011;51055;59.436;24.778;2022-11-06T06:55:58;22.52;;;11.35;;
40907;SDS011;51055;59.436;24.778;2022-11-06T06:58:27;21.50;;;10.18;;
40907;SDS011;51055;59.436;24.778;2022-11-06T07:01:02;19.20;;;10.27;;
40907;SDS011;51055;59.436;24.778;2022-11-06T07:03:31;21.15;;;10.80;;
40907;SDS011;51055;59.436;24.778;2022-11-06T07:05:59;21.27;;;11.18;;
40907;SDS011;51055;59.436;24.778;2022-11-06T07:08:28;20.77;;;10.75;;
40907;SDS011;51055;59.436;24.778;2022-11-06T07:11:00;16.55;;;8.98;;
40907;SDS011;51055;59.436;24.778;2022-11-06T07:13:30;24.88;;;12.02;;
40907;SDS011;51055;59.436;24.778;2022-11-06T07:16:03;25.55;;;13.88;;
40907;SDS011;51055;59.436;24.778;2022-11-06T07:18:33;23.83;;;12.57;;
40907;SDS011;51055;59.436;24.778;2022-11-06T07:21:04;20.17;;;10.75;;
40907;SDS011;51055;59.436;24.778;2022-11-06T07:23:37;19.80;;;9.65;;
40907;SDS011;51055;59.436;24.778;2022-11-06T07:26:05;19.20;;;10.98;;
40907;SDS011;51055;59.436;24.778;2022-11-06T07:28:33;20.02;;;9.20;;
40907;SDS011;51055;59.436;24.778;2022-11-06T07:31:01;16.15;;;8.55;;
40907;SDS011;51055;59.436;24.778;2022-11-06T07:33:31;16.83;;;9.45;;
40907;SDS011;51055;59.436;24.778;2022-11-06T07:36:03;12.38;;;6.53;;
40907;SDS011;51055;59.436;24.778;2022-11-06T07:38:33;20.35;;;9.88;;
40907;SDS011;51055;59.436;24.778;2022-11-06T07:43:29;18.17;;;8.63;;
40907;SDS011;51055;59.436;24.778;2022-11-06T07:45:58;20.75;;;8.32;;
40907;SDS011;51055;59.436;24.778;2022-11-06T07:48:28;22.25;;;9.73;;
40907;SDS011;51055;59.436;24.778;2022-11-06T07:50:56;13.20;;;7.10;;
40907;SDS011;51055;59.436;24.778;2022-11-06T07:53:24;17.35;;;9.05;;
40907;SDS011;51055;59.436;24.778;2022-11-06T07:55:53;19.85;;;8.25;;
40907;SDS011;51055;59.436;24.778;2022-11-06T07:58:22;17.98;;;9.02;;
40907;SDS011;51055;59.436;24.778;2022-11-06T08:00:52;18.08;;;9.15;;
40907;SDS011;51055;59.436;24.778;2022-11-06T08:03:22;22.92;;;11.15;;
40907;SDS011;51055;59.436;24.778;2022-11-06T08:05:50;16.48;;;8.88;;
40907;SDS011;51055;59.436;24.778;2022-11-06T08:08:18;17.92;;;11.57;;
40907;SDS011;51055;59.436;24.778;2022-11-06T08:10:46;16.48;;;10.05;;
40907;SDS011;51055;59.436;24.778;2022-11-06T08:13:16;17.75;;;9.23;;
40907;SDS011;51055;59.436;24.778;2022-11-06T08:15:44;19.63;;;10.20;;
40907;SDS011;51055;59.436;24.778;2022-11-06T08:18:12;20.90;;;8.67;;
40907;SDS011;51055;59.436;24.778;2022-11-06T08:20:40;19.75;;;9.95;;
40907;SDS011;51055;59.436;24.778;2022-11-06T08:23:09;16.05;;;8.55;;
40907;SDS011;51055;59.436;24.778;2022-11-06T08:25:39;17.38;;;9.93;;
40907;SDS011;51055;59.436;24.778;2022-11-06T08:28:06;17.30;;;8.40;;
40907;SDS011;51055;59.436;24.778;2022-11-06T08:33:04;15.85;;;7.05;;
40907;SDS011;51055;59.436;24.778;2022-11-06T08:35:34;12.85;;;6.70;;
40907;SDS011;51055;59.436;24.778;2022-11-06T08:38:02;13.85;;;6.72;;
40907;SDS011;51055;59.436;24.778;2022-11-06T08:40:30;16.95;;;6.93;;
40907;SDS011;51055;59.436;24.778;2022-11-06T08:42:59;14.45;;;7.03;;
40907;SDS011;51055;59.436;24.778;2022-11-06T08:45:31;15.27;;;6.95;;
40907;SDS011;51055;59.436;24.778;2022-11-06T08:48:02;16.63;;;6.22;;
40907;SDS011;51055;59.436;24.778;2022-11-06T08:50:31;16.15;;;7.80;;
40907;SDS011;51055;59.436;24.778;2022-11-06T08:52:59;11.90;;;7.28;;
40907;SDS011;51055;59.436;24.778;2022-11-06T08:55:31;16.52;;;7.80;;
40907;SDS011;51055;59.436;24.778;2022-11-06T08:58:00;14.60;;;6.80;;
40907;SDS011;51055;59.436;24.778;2022-11-06T09:00:28;17.80;;;7.60;;
40907;SDS011;51055;59.436;24.778;2022-11-06T09:03:01;16.42;;;7.07;;
40907;SDS011;51055;59.436;24.778;2022-11-06T09:05:32;18.35;;;7.20;;
40907;SDS011;51055;59.436;24.778;2022-11-06T09:08:00;18.07;;;7.50;;
40907;SDS011;51055;59.436;24.778;2022-11-06T09:10:28;19.42;;;8.45;;
40907;SDS011;51055;59.436;24.778;2022-11-06T09:12:57;17.02;;;7.30;;
40907;SDS011;51055;59.436;24.778;2022-11-06T09:15:25;23.27;;;6.68;;
40907;SDS011;51055;59.436;24.778;2022-11-06T09:17:53;15.33;;;6.23;;
40907;SDS011;51055;59.436;24.778;2022-11-06T09:20:21;17.67;;;5.68;;
40907;SDS011;51055;59.436;24.778;2022-11-06T09:22:51;14.48;;;5.82;;
40907;SDS011;51055;59.436;24.778;2022-11-06T09:25:18;13.80;;;4.93;;
40907;SDS011;51055;59.436;24.778;2022-11-06T09:27:47;15.73;;;5.38;;
40907;SDS011;51055;59.436;24.778;2022-11-06T09:30:25;14.60;;;4.87;;
40907;SDS011;51055;59.436;24.778;2022-11-06T09:32:56;19.35;;;6.20;;
40907;SDS011;51055;59.436;24.778;2022-11-06T09:35:26;15.65;;;4.70;;
40907;SDS011;51055;59.436;24.778;2022-11-06T09:38:05;16.55;;;5.57;;
40907;SDS011;51055;59.436;24.778;2022-11-06T09:40:37;14.13;;;4.93;;
40907;SDS011;51055;59.436;24.778;2022-11-06T09:54:49;11.35;;;4.22;;
40907;SDS011;51055;59.436;24.778;2022-11-06T09:59:50;12.93;;;3.80;;
40907;SDS011;51055;59.436;24.778;2022-11-06T10:02:29;11.88;;;4.28;;
40907;SDS011;51055;59.436;24.778;2022-11-06T10:07:37;11.18;;;4.00;;
40907;SDS011;51055;59.436;24.778;2022-11-06T10:10:10;8.02;;;3.22;;
40907;SDS011;51055;59.436;24.778;2022-11-06T10:12:50;10.18;;;3.47;;
40907;SDS011;51055;59.436;24.778;2022-11-06T10:15:28;12.30;;;4.93;;
40907;SDS011;51055;59.436;24.778;2022-11-06T10:21:10;14.88;;;4.30;;
40907;SDS011;51055;59.436;24.778;2022-11-06T10:23:46;8.50;;;3.92;;
40907;SDS011;51055;59.436;24.778;2022-11-06T10:26:30;11.80;;;3.47;;
40907;SDS011;51055;59.436;24.778;2022-11-06T10:29:06;11.40;;;4.10;;
40907;SDS011;51055;59.436;24.778;2022-11-06T10:31:52;11.18;;;4.40;;
40907;SDS011;51055;59.436;24.778;2022-11-06T10:39:35;17.20;;;4.05;;
40907;SDS011;51055;59.436;24.778;2022-11-06T10:42:05;10.57;;;4.07;;
40907;SDS011;51055;59.436;24.778;2022-11-06T10:45:23;10.98;;;2.88;;
40907;SDS011;51055;59.436;24.778;2022-11-06T10:47:51;10.80;;;3.38;;
40907;SDS011;51055;59.436;24.778;2022-11-06T10:50:22;10.23;;;2.85;;
40907;SDS011;51055;59.436;24.778;2022-11-06T10:58:37;7.45;;;2.45;;
40907;SDS011;51055;59.436;24.778;2022-11-06T11:01:05;8.35;;;2.47;;
40907;SDS011;51055;59.436;24.778;2022-11-06T11:03:36;8.57;;;2.30;;
40907;SDS011;51055;59.436;24.778;2022-11-06T11:06:08;11.32;;;3.13;;
40907;SDS011;51055;59.436;24.778;2022-11-06T11:08:40;11.38;;;3.00;;
40907;SDS011;51055;59.436;24.778;2022-11-06T11:16:23;10.98;;;2.55;;
40907;SDS011;51055;59.436;24.778;2022-11-06T11:18:54;7.45;;;2.30;;
40907;SDS011;51055;59.436;24.778;2022-11-06T11:21:52;5.60;;;1.98;;
40907;SDS011;51055;59.436;24.778;2022-11-06T11:24:24;10.93;;;2.70;;
40907;SDS011;51055;59.436;24.778;2022-11-06T11:26:53;8.55;;;2.10;;
40907;SDS011;51055;59.436;24.778;2022-11-06T11:29:40;12.80;;;2.72;;
40907;SDS011;51055;59.436;24.778;2022-11-06T11:32:13;12.23;;;2.88;;
40907;SDS011;51055;59.436;24.778;2022-11-06T11:34:51;12.00;;;2.85;;
40907;SDS011;51055;59.436;24.778;2022-11-06T11:37:27;7.25;;;2.90;;
40907;SDS011;51055;59.436;24.778;2022-11-06T11:43:22;12.25;;;3.30;;
40907;SDS011;51055;59.436;24.778;2022-11-06T11:46:23;8.52;;;2.50;;
40907;SDS011;51055;59.436;24.778;2022-11-06T11:48:55;10.48;;;2.30;;
40907;SDS011;51055;59.436;24.778;2022-11-06T11:51:39;9.77;;;2.80;;
40907;SDS011;51055;59.436;24.778;2022-11-06T11:56:54;7.30;;;2.13;;
40907;SDS011;51055;59.436;24.778;2022-11-06T12:02:19;12.05;;;2.30;;
40907;SDS011;51055;59.436;24.778;2022-11-06T12:05:01;10.07;;;2.47;;
40907;SDS011;51055;59.436;24.778;2022-11-06T12:07:35;8.70;;;2.55;;
40907;SDS011;51055;59.436;24.778;2022-11-06T12:10:24;10.00;;;2.13;;
40907;SDS011;51055;59.436;24.778;2022-11-06T12:12:59;7.97;;;2.10;;
40907;SDS011;51055;59.436;24.778;2022-11-06T12:15:50;9.13;;;2.35;;
40907;SDS011;51055;59.436;24.778;2022-11-06T12:18:35;8.10;;;2.33;;
40907;SDS011;51055;59.436;24.778;2022-11-06T12:21:22;11.13;;;2.53;;
40907;SDS011;51055;59.436;24.778;2022-11-06T12:26:36;5.47;;;1.70;;
40907;SDS011;51055;59.436;24.778;2022-11-06T12:29:12;13.07;;;2.42;;
40907;SDS011;51055;59.436;24.778;2022-11-06T12:31:47;8.00;;;2.17;;
40907;SDS011;51055;59.436;24.778;2022-11-06T12:37:51;6.95;;;1.67;;
40907;SDS011;51055;59.436;24.778;2022-11-06T12:40:27;9.80;;;2.00;;
40907;SDS011;51055;59.436;24.778;2022-11-06T12:42:59;8.82;;;1.98;;
40907;SDS011;51055;59.436;24.778;2022-11-06T12:48:57;16.55;;;6.97;;
40907;SDS011;51055;59.436;24.778;2022-11-06T12:56:48;9.52;;;3.35;;
40907;SDS011;51055;59.436;24.778;2022-11-06T13:02:28;4.22;;;1.58;;
40907;SDS011;51055;59.436;24.778;2022-11-06T13:08:11;4.38;;;1.98;;
40907;SDS011;51055;59.436;24.778;2022-11-06T13:16:46;6.68;;;2.00;;
40907;SDS011;51055;59.436;24.778;2022-11-06T13:19:27;8.63;;;2.30;;
40907;SDS011;51055;59.436;24.778;2022-11-06T13:24:54;6.93;;;2.17;;
40907;SDS011;51055;59.436;24.778;2022-11-06T13:27:55;7.10;;;2.03;;
40907;SDS011;51055;59.436;24.778;2022-11-06T13:30:30;5.97;;;1.83;;
40907;SDS011;51055;59.436;24.778;2022-11-06T13:35:38;5.60;;;2.13;;
40907;SDS011;51055;59.436;24.778;2022-11-06T13:38:13;8.93;;;2.92;;
40907;SDS011;51055;59.436;24.778;2022-11-06T13:40:46;8.20;;;2.60;;
40907;SDS011;51055;59.436;24.778;2022-11-06T13:43:42;11.02;;;2.67;;
40907;SDS011;51055;59.436;24.778;2022-11-06T13:54:04;8.30;;;2.28;;
40907;SDS011;51055;59.436;24.778;2022-11-06T14:08:03;6.50;;;2.40;;
40907;SDS011;51055;59.436;24.778;2022-11-06T14:10:41;10.43;;;3.15;;
40907;SDS011;51055;59.436;24.778;2022-11-06T14:13:22;10.57;;;2.22;;
40907;SDS011;51055;59.436;24.778;2022-11-06T14:18:39;12.80;;;3.25;;
40907;SDS011;51055;59.436;24.778;2022-11-06T14:26:35;9.93;;;2.88;;
40907;SDS011;51055;59.436;24.778;2022-11-06T14:32:02;8.65;;;2.53;;
40907;SDS011;51055;59.436;24.778;2022-11-06T14:34:37;10.55;;;2.40;;
40907;SDS011;51055;59.436;24.778;2022-11-06T14:44:53;8.75;;;3.40;;
40907;SDS011;51055;59.436;24.778;2022-11-06T14:47:28;10.40;;;3.13;;
40907;SDS011;51055;59.436;24.778;2022-11-06T14:58:16;8.80;;;2.85;;
40907;SDS011;51055;59.436;24.778;2022-11-06T15:03:50;12.85;;;3.88;;
40907;SDS011;51055;59.436;24.778;2022-11-06T15:08:56;8.75;;;3.17;;
40907;SDS011;51055;59.436;24.778;2022-11-06T15:16:53;9.18;;;3.75;;
40907;SDS011;51055;59.436;24.778;2022-11-06T15:19:28;7.03;;;3.35;;
40907;SDS011;51055;59.436;24.778;2022-11-06T15:25:18;14.07;;;3.80;;
40907;SDS011;51055;59.436;24.778;2022-11-06T15:27:43;14.85;;;4.57;;
40907;SDS011;51055;59.436;24.778;2022-11-06T15:30:15;17.40;;;8.15;;
40907;SDS011;51055;59.436;24.778;2022-11-06T15:32:46;12.15;;;4.68;;
40907;SDS011;51055;59.436;24.778;2022-11-06T15:35:18;8.57;;;5.18;;
40907;SDS011;51055;59.436;24.778;2022-11-06T15:37:56;10.38;;;4.82;;
40907;SDS011;51055;59.436;24.778;2022-11-06T15:40:32;11.48;;;5.22;;
40907;SDS011;51055;59.436;24.778;2022-11-06T15:43:05;10.73;;;4.90;;
40907;SDS011;51055;59.436;24.778;2022-11-06T15:45:33;32.65;;;17.20;;
40907;SDS011;51055;59.436;24.778;2022-11-06T15:48:03;22.60;;;14.82;;
40907;SDS011;51055;59.436;24.778;2022-11-06T15:50:33;22.38;;;14.25;;
40907;SDS011;51055;59.436;24.778;2022-11-06T15:55:47;11.40;;;5.15;;
40907;SDS011;51055;59.436;24.778;2022-11-06T16:00:51;11.02;;;5.50;;
40907;SDS011;51055;59.436;24.778;2022-11-06T16:03:20;11.75;;;4.10;;
40907;SDS011;51055;59.436;24.778;2022-11-06T16:05:50;11.27;;;4.70;;
40907;SDS011;51055;59.436;24.778;2022-11-06T16:08:20;11.30;;;3.78;;
40907;SDS011;51055;59.436;24.778;2022-11-06T16:10:52;8.70;;;4.80;;
40907;SDS011;51055;59.436;24.778;2022-11-06T16:13:22;10.73;;;5.22;;
40907;SDS011;51055;59.436;24.778;2022-11-06T16:15:55;12.20;;;4.15;;
40907;SDS011;51055;59.436;24.778;2022-11-06T16:18:27;10.07;;;4.45;;
40907;SDS011;51055;59.436;24.778;2022-11-06T16:26:12;10.48;;;4.18;;
40907;SDS011;51055;59.436;24.778;2022-11-06T16:28:43;11.27;;;4.47;;
40907;SDS011;51055;59.436;24.778;2022-11-06T16:31:15;10.98;;;5.43;;
40907;SDS011;51055;59.436;24.778;2022-11-06T16:33:52;9.77;;;4.68;;
40907;SDS011;51055;59.436;24.778;2022-11-06T16:36:21;11.23;;;4.65;;
40907;SDS011;51055;59.436;24.778;2022-11-06T16:38:49;11.70;;;4.13;;
40907;SDS011;51055;59.436;24.778;2022-11-06T16:41:18;9.30;;;4.00;;
40907;SDS011;51055;59.436;24.778;2022-11-06T16:44:19;8.60;;;3.28;;
40907;SDS011;51055;59.436;24.778;2022-11-06T16:49:32;10.95;;;4.57;;
40907;SDS011;51055;59.436;24.778;2022-11-06T16:52:02;11.20;;;4.63;;
40907;SDS011;51055;59.436;24.778;2022-11-06T16:54:48;11.27;;;5.20;;
40907;SDS011;51055;59.436;24.778;2022-11-06T16:57:20;12.18;;;5.15;;
40907;SDS011;51055;59.436;24.778;2022-11-06T16:59:54;10.90;;;4.22;;
40907;SDS011;51055;59.436;24.778;2022-11-06T17:02:26;11.30;;;4.22;;
40907;SDS011;51055;59.436;24.778;2022-11-06T17:05:10;9.23;;;3.72;;
40907;SDS011;51055;59.436;24.778;2022-11-06T17:07:39;13.85;;;3.97;;
40907;SDS011;51055;59.436;24.778;2022-11-06T17:10:25;8.57;;;3.38;;
40907;SDS011;51055;59.436;24.778;2022-11-06T17:13:17;11.18;;;4.07;;
40907;SDS011;51055;59.436;24.778;2022-11-06T17:15:46;10.00;;;5.07;;
40907;SDS011;51055;59.436;24.778;2022-11-06T17:18:23;12.95;;;7.93;;
40907;SDS011;51055;59.436;24.778;2022-11-06T17:20:57;12.57;;;5.85;;
40907;SDS011;51055;59.436;24.778;2022-11-06T17:23:27;23.48;;;11.50;;
40907;SDS011;51055;59.436;24.778;2022-11-06T17:25:57;19.98;;;11.60;;
40907;SDS011;51055;59.436;24.778;2022-11-06T17:28:28;39.33;;;31.17;;
40907;SDS011;51055;59.436;24.778;2022-11-06T17:30:56;10.77;;;8.02;;
40907;SDS011;51055;59.436;24.778;2022-11-06T17:33:24;14.48;;;7.95;;
40907;SDS011;51055;59.436;24.778;2022-11-06T17:35:52;13.02;;;6.45;;
40907;SDS011;51055;59.436;24.778;2022-11-06T17:38:20;10.13;;;5.82;;
40907;SDS011;51055;59.436;24.778;2022-11-06T17:40:47;13.73;;;4.88;;
40907;SDS011;51055;59.436;24.778;2022-11-06T17:43:15;7.13;;;3.63;;
40907;SDS011;51055;59.436;24.778;2022-11-06T17:45:44;11.32;;;6.45;;
40907;SDS011;51055;59.436;24.778;2022-11-06T17:48:16;10.05;;;5.72;;
40907;SDS011;51055;59.436;24.778;2022-11-06T17:50:44;10.13;;;5.30;;
40907;SDS011;51055;59.436;24.778;2022-11-06T17:53:30;9.40;;;4.00;;
40907;SDS011;51055;59.436;24.778;2022-11-06T17:56:01;10.52;;;3.88;;
40907;SDS011;51055;59.436;24.778;2022-11-06T17:58:30;10.75;;;4.40;;
40907;SDS011;51055;59.436;24.778;2022-11-06T18:01:05;9.90;;;4.07;;
40907;SDS011;51055;59.436;24.778;2022-11-06T18:03:42;10.80;;;3.78;;
40907;SDS011;51055;59.436;24.778;2022-11-06T18:06:12;9.52;;;3.20;;
40907;SDS011;51055;59.436;24.778;2022-11-06T18:08:41;10.63;;;3.95;;
40907;SDS011;51055;59.436;24.778;2022-11-06T18:11:09;8.07;;;3.75;;
40907;SDS011;51055;59.436;24.778;2022-11-06T18:13:38;9.63;;;2.78;;
40907;SDS011;51055;59.436;24.778;2022-11-06T18:16:16;11.20;;;3.88;;
40907;SDS011;51055;59.436;24.778;2022-11-06T18:18:46;8.63;;;3.20;;
40907;SDS011;51055;59.436;24.778;2022-11-06T18:21:15;10.48;;;3.28;;
40907;SDS011;51055;59.436;24.778;2022-11-06T18:23:43;11.40;;;3.45;;
40907;SDS011;51055;59.436;24.778;2022-11-06T18:26:11;7.93;;;3.92;;
40907;SDS011;51055;59.436;24.778;2022-11-06T18:28:40;9.15;;;3.78;;
40907;SDS011;51055;59.436;24.778;2022-11-06T18:31:09;9.45;;;3.10;;
40907;SDS011;51055;59.436;24.778;2022-11-06T18:33:37;12.07;;;3.38;;
40907;SDS011;51055;59.436;24.778;2022-11-06T18:36:07;9.32;;;3.20;;